createdAt,value
2019-05-21T00:04:28.357Z,51.60
2019-05-21T00:09:35.058Z,59.03
2019-05-21T00:14:37.433Z,56.37
2019-05-21T00:19:39.588Z,54.53
2019-05-21T00:24:41.853Z,61.40
2019-05-21T00:30:23.713Z,44.73
2019-05-21T00:36:02.593Z,41.50
2019-05-21T00:41:41.328Z,42.30
2019-05-21T00:46:48.446Z,46.93
2019-05-21T00:52:06.541Z,48.83
2019-05-21T00:56:58.541Z,58.80
2019-05-21T01:02:00.588Z,67.40
2019-05-21T01:07:04.890Z,59.83
2019-05-21T01:12:06.898Z,63.70
2019-05-21T01:17:10.676Z,68.63
2019-05-21T01:22:12.752Z,66.20
2019-05-21T01:27:16.661Z,71.40
2019-05-21T01:32:20.590Z,70.97
2019-05-21T01:37:42.446Z,73.27
2019-05-21T01:42:47.061Z,84.70
2019-05-21T01:47:49.119Z,88.00
2019-05-21T01:52:51.450Z,84.13
2019-05-21T01:57:55.596Z,94.73
2019-05-21T02:02:57.641Z,128.53
2019-05-21T02:07:59.703Z,131.20
2019-05-21T02:13:06.538Z,83.37
2019-05-21T02:18:08.698Z,66.90
2019-05-21T02:23:16.063Z,76.73
2019-05-21T02:28:18.117Z,64.80
2019-05-21T02:33:20.445Z,60.47
2019-05-21T02:38:22.503Z,60.13
2019-05-21T02:43:26.326Z,59.53
2019-05-21T02:48:28.379Z,67.67
2019-05-21T02:53:34.345Z,75.03
2019-05-21T02:58:34.481Z,79.43
2019-05-21T03:03:36.507Z,88.07
2019-05-21T03:08:41.271Z,82.00
2019-05-21T03:13:48.854Z,94.73
2019-05-21T03:18:50.894Z,98.47
2019-05-21T03:23:53.173Z,101.17
2019-05-21T03:28:55.343Z,97.87
2019-05-21T03:34:05.752Z,116.47
2019-05-21T03:39:09.144Z,117.83
2019-05-21T03:44:12.379Z,125.33
2019-05-21T03:49:17.100Z,140.53
2019-05-21T03:54:19.172Z,124.83
2019-05-21T03:59:21.197Z,103.60
2019-05-21T04:04:28.943Z,95.10
2019-05-21T04:09:31.081Z,104.13
2019-05-21T04:14:42.481Z,100.23
2019-05-21T04:19:46.419Z,105.23
2019-05-21T04:24:50.431Z,111.73
2019-05-21T04:29:52.507Z,103.03
2019-05-21T04:34:54.678Z,97.60
2019-05-21T04:39:56.838Z,91.73
2019-05-21T04:44:59.330Z,83.77
2019-05-21T04:50:01.454Z,60.07
2019-05-21T04:55:04.194Z,53.47
2019-05-21T05:00:09.433Z,51.60
2019-05-21T05:05:15.470Z,47.87
2019-05-21T05:10:17.493Z,45.87
2019-05-21T05:15:24.286Z,43.40
2019-05-21T05:20:26.374Z,52.83
2019-05-21T05:25:33.000Z,52.00
2019-05-21T05:30:37.923Z,50.87
2019-05-21T05:35:40.468Z,52.97
2019-05-21T05:40:42.537Z,50.67
2019-05-21T05:45:47.403Z,38.83
2019-05-21T05:50:51.686Z,39.13
2019-05-21T05:56:01.629Z,40.07
2019-05-21T06:01:03.718Z,43.00
2019-05-21T06:06:08.789Z,38.90
2019-05-21T06:11:12.095Z,38.47
2019-05-21T06:16:14.461Z,41.70
2019-05-21T06:21:16.515Z,37.93
2019-05-21T06:26:20.063Z,41.73
2019-05-21T06:31:21.930Z,43.77
2019-05-21T06:36:23.913Z,40.17
2019-05-21T06:41:25.828Z,44.47
2019-05-21T06:46:29.165Z,44.20
2019-05-21T06:51:32.768Z,40.70
2019-05-21T06:56:34.894Z,40.17
2019-05-21T07:01:36.704Z,42.63
2019-05-21T07:06:38.698Z,36.03
2019-05-21T07:11:42.617Z,30.87
2019-05-21T07:16:44.731Z,31.67
2019-05-21T07:21:48.065Z,33.53
2019-05-21T07:26:50.163Z,28.87
2019-05-21T07:31:52.069Z,35.30
2019-05-21T07:36:59.040Z,29.33
2019-05-21T07:42:00.954Z,35.50
2019-05-21T07:47:02.857Z,35.40
2019-05-21T07:52:04.773Z,32.70
2019-05-21T07:57:07.880Z,32.20
2019-05-21T08:02:09.798Z,30.87
2019-05-21T08:07:11.754Z,33.93
2019-05-21T08:12:35.487Z,27.27
2019-05-21T08:17:17.725Z,28.70
2019-05-21T08:22:21.838Z,30.73
2019-05-21T08:27:23.741Z,35.47
2019-05-21T08:32:28.525Z,46.97
2019-05-21T08:37:30.331Z,48.77
2019-05-21T08:42:34.313Z,48.40
2019-05-21T08:47:36.251Z,42.20
2019-05-21T08:52:38.255Z,35.03
2019-05-21T08:57:42.987Z,33.63
2019-05-21T09:02:44.870Z,39.70
2019-05-21T09:07:53.112Z,42.20
2019-05-21T09:12:52.688Z,37.07
2019-05-21T09:17:54.678Z,30.73
2019-05-21T09:22:59.680Z,27.97
2019-05-21T09:28:01.584Z,22.10
2019-05-21T09:33:03.731Z,17.80
2019-05-21T09:38:05.903Z,18.87
2019-05-21T09:43:07.921Z,19.60
2019-05-21T09:48:12.404Z,18.97
2019-05-21T09:53:17.069Z,21.27
2019-05-21T09:58:27.498Z,17.77
2019-05-21T10:03:31.847Z,16.00
2019-05-21T10:08:36.992Z,17.67
2019-05-21T10:13:37.562Z,18.70
2019-05-21T10:18:40.525Z,21.07
2019-05-21T10:23:42.490Z,20.00
2019-05-21T10:28:44.384Z,19.30
2019-05-21T10:33:47.204Z,18.20
2019-05-21T10:38:49.152Z,16.77
2019-05-21T10:43:54.156Z,18.63
2019-05-21T10:48:56.087Z,19.83
2019-05-21T10:53:58.214Z,21.80
2019-05-21T10:59:00.404Z,23.03
2019-05-21T11:04:36.882Z,19.23
2019-05-21T11:09:38.855Z,19.77
2019-05-21T11:14:40.765Z,18.47
2019-05-21T11:19:45.754Z,17.07
2019-05-21T11:24:47.729Z,21.33
2019-05-21T11:29:49.793Z,15.13
2019-05-21T11:34:52.965Z,19.50
2019-05-21T11:39:57.691Z,21.80
2019-05-21T11:44:59.565Z,17.43
2019-05-21T11:50:01.533Z,17.37
2019-05-21T11:55:05.416Z,16.97
2019-05-21T12:00:10.923Z,19.00
2019-05-21T12:05:12.854Z,24.10
2019-05-21T12:10:16.352Z,21.93
2019-05-21T12:15:18.293Z,25.43
2019-05-21T12:20:35.209Z,28.33
2019-05-21T12:25:29.194Z,38.77
2019-05-21T12:30:33.455Z,40.40
2019-05-21T12:35:38.212Z,35.60
2019-05-21T12:40:41.905Z,36.80
2019-05-21T12:45:47.934Z,31.20
2019-05-21T12:50:49.747Z,27.73
2019-05-21T12:55:51.985Z,27.97
2019-05-21T13:00:53.893Z,28.83
2019-05-21T13:05:55.976Z,29.70
2019-05-21T13:10:59.051Z,28.73
2019-05-21T13:16:01.138Z,31.67
2019-05-21T13:21:03.305Z,36.97
2019-05-21T13:26:08.829Z,26.67
2019-05-21T13:31:10.953Z,27.37
2019-05-21T13:36:13.118Z,29.80
2019-05-21T13:41:15.543Z,23.23
2019-05-21T13:46:17.721Z,25.97
2019-05-21T13:51:19.804Z,21.23
2019-05-21T13:56:21.937Z,28.33
2019-05-21T14:01:39.180Z,25.73
2019-05-21T14:06:32.167Z,24.50
2019-05-21T14:11:34.187Z,23.03
2019-05-21T14:16:38.165Z,28.13
2019-05-21T14:21:45.612Z,25.47
2019-05-21T14:26:47.626Z,24.40
2019-05-21T14:31:51.349Z,37.93
2019-05-21T14:36:53.407Z,32.10
2019-05-21T14:41:55.352Z,32.30
2019-05-21T14:47:00.137Z,35.97
2019-05-21T14:52:01.994Z,34.37
2019-05-21T14:57:11.196Z,37.70
2019-05-21T15:02:14.665Z,34.17
2019-05-21T15:07:19.316Z,33.10
2019-05-21T15:12:23.331Z,48.13
2019-05-21T15:17:28.367Z,30.60
2019-05-21T15:22:35.428Z,33.27
2019-05-21T15:27:37.347Z,27.83
2019-05-21T15:32:41.205Z,32.30
2019-05-21T15:37:45.304Z,40.37
2019-05-21T15:42:53.334Z,35.63
2019-05-21T15:47:55.949Z,35.52
2019-05-21T15:52:57.814Z,35.93
2019-05-21T15:58:06.573Z,31.63
2019-05-21T16:03:08.507Z,30.23
2019-05-21T16:08:11.917Z,36.50
2019-05-21T16:13:17.587Z,32.00
2019-05-21T16:18:19.518Z,39.90
2019-05-21T16:23:24.448Z,32.60
2019-05-21T16:28:31.854Z,36.63
2019-05-21T16:33:39.134Z,35.20
2019-05-21T16:38:43.227Z,37.53
2019-05-21T16:43:47.795Z,37.13
2019-05-21T16:48:50.975Z,32.57
2019-05-21T16:53:53.015Z,34.70
2019-05-21T16:58:54.982Z,37.53
2019-05-21T17:04:00.521Z,34.50
2019-05-21T17:09:04.145Z,32.43
2019-05-21T17:14:10.774Z,38.00
2019-05-21T17:19:12.718Z,38.23
2019-05-21T17:24:15.032Z,38.63
2019-05-21T17:29:16.954Z,37.55
2019-05-21T17:34:18.915Z,43.13
2019-05-21T17:39:20.786Z,40.97
2019-05-21T17:44:24.891Z,45.07
2019-05-21T17:49:26.491Z,46.17
2019-05-21T17:54:28.408Z,47.77
2019-05-21T17:59:33.114Z,40.13
2019-05-21T18:04:41.531Z,41.87
2019-05-21T18:09:43.561Z,42.77
2019-05-21T18:14:45.826Z,46.40
2019-05-21T18:19:49.380Z,46.60
2019-05-21T18:24:54.378Z,52.13
2019-05-21T18:30:03.181Z,50.70
2019-05-21T18:35:06.740Z,62.37
2019-05-21T18:40:11.179Z,44.87
2019-05-21T18:45:15.288Z,67.10
2019-05-21T18:50:34.464Z,59.40
2019-05-21T18:55:23.421Z,69.33
2019-05-21T19:00:25.851Z,57.83
2019-05-21T19:05:28.068Z,60.53
2019-05-21T19:10:32.895Z,68.60
2019-05-21T19:15:35.375Z,71.17
2019-05-21T19:20:38.254Z,72.37
2019-05-21T19:25:40.753Z,73.37
2019-05-21T19:30:42.662Z,76.90
2019-05-21T19:35:46.969Z,77.27
2019-05-21T19:40:48.876Z,96.03
2019-05-21T19:45:50.774Z,89.43
2019-05-21T19:51:00.156Z,74.37
2019-05-21T19:56:08.401Z,76.73
2019-05-21T20:01:11.642Z,78.47
2019-05-21T20:06:14.115Z,80.50
2019-05-21T20:11:19.163Z,70.23
2019-05-21T20:16:22.326Z,86.93
2019-05-21T20:21:26.984Z,97.27
2019-05-21T20:26:32.556Z,87.90
2019-05-21T20:31:36.447Z,84.87
2019-05-21T20:36:40.801Z,85.33
2019-05-21T20:41:43.441Z,93.63
2019-05-21T20:46:45.965Z,85.77
2019-05-21T20:51:48.296Z,83.00
2019-05-21T20:56:50.368Z,80.73
2019-05-21T21:01:52.549Z,64.60
2019-05-21T21:06:55.100Z,47.47
2019-05-21T21:11:57.717Z,44.77
2019-05-21T21:17:04.185Z,37.63
2019-05-21T21:22:06.202Z,40.10
2019-05-21T21:27:08.306Z,37.60
2019-05-21T21:32:10.504Z,36.73
2019-05-21T21:37:12.574Z,42.63
2019-05-21T21:42:14.669Z,34.80
2019-05-21T21:47:16.576Z,32.53
2019-05-21T21:52:18.677Z,27.23
2019-05-21T21:57:25.173Z,27.17
2019-05-21T22:02:30.685Z,31.77
2019-05-21T22:07:32.671Z,24.20
2019-05-21T22:12:36.806Z,29.87
2019-05-21T22:17:40.763Z,25.30
2019-05-21T22:22:43.568Z,30.73
2019-05-21T22:27:45.671Z,27.47
2019-05-21T22:32:47.731Z,28.57
2019-05-21T22:37:52.044Z,26.80
2019-05-21T22:42:55.783Z,25.63
2019-05-21T22:47:57.731Z,24.77
2019-05-21T22:53:00.971Z,28.03
2019-05-21T22:58:05.149Z,26.93
2019-05-21T23:03:07.798Z,26.13
2019-05-21T23:08:10.011Z,20.57
2019-05-21T23:13:11.950Z,17.07
2019-05-21T23:18:14.055Z,22.00
2019-05-21T23:23:16.547Z,20.20
2019-05-21T23:28:18.958Z,17.23
2019-05-21T23:33:25.601Z,15.10
2019-05-21T23:38:29.945Z,14.77
2019-05-21T23:43:34.747Z,20.93
2019-05-21T23:48:37.857Z,14.53
2019-05-21T23:53:40.260Z,16.80
2019-05-21T23:58:43.918Z,23.07
